This is the latest recevied weather packets stored in our database for station/object KF6ILA. If no packets are shown the sender has not sent any weather packets the latest 10 day(s).
| Time | Temp. | Humidity | Pressure | Rain* | Wind** | Luminosity | Snow |
|---|---|---|---|---|---|---|---|
| 1787626459 | 25° C | 48% | 1017.8 hPa | 0 mm | - | 0 W/m² | - |
| 1787626162 | 25° C | 48% | 1017.8 hPa | 0 mm | - | 0 W/m² | - |
| 1787625865 | 25° C | 48% | 1017.8 hPa | 0 mm | - | 0 W/m² | - |
| 1787625271 | 25.56° C | 47% | 1017.7 hPa | 0 mm | - | 0 W/m² | - |
| 1787624974 | 26.11° C | 47% | 1017.6 hPa | 0 mm | - | 0 W/m² | - |
| 1787624677 | 26.11° C | 47% | 1017.7 hPa | 0 mm | - | 0 W/m² | - |
| 1787624380 | 26.67° C | 46% | 1017.7 hPa | 0 mm | - | 5 W/m² | - |
| 1787624175 | 26.67° C | 45% | 1017.8 hPa | 0 mm | - | 7 W/m² | - |
| 1787624083 | 26.67° C | 45% | 1017.8 hPa | 0 mm | - | 7 W/m² | - |
| 1787623786 | 27.22° C | 44% | 1017.8 hPa | 0 mm | - | 11 W/m² | - |
| 1787623700 | 27.22° C | 43% | 1017.7 hPa | 0 mm | - | 16 W/m² | - |
| 1787623489 | 27.22° C | 43% | 1017.7 hPa | 0 mm | - | 16 W/m² | - |
| 1787623192 | 27.78° C | 43% | 1017.7 hPa | 0 mm | - | 19 W/m² | - |
| 1787622895 | 28.33° C | 43% | 1017.7 hPa | 0 mm | - | 32 W/m² | - |
| 1787622598 | 28.33° C | 42% | 1017.7 hPa | 0 mm | - | 42 W/m² | - |
| 1787621707 | 29.44° C | 41% | 1017.7 hPa | 0 mm | - | 90 W/m² | - |
| 1787620222 | 30.56° C | 39% | 1017.7 hPa | 0 mm | - | 195 W/m² | - |
| 1787619925 | 30.56° C | 40% | 1017.6 hPa | 0 mm | - | 216 W/m² | - |
| 1787619628 | 30.56° C | 39% | 1017.6 hPa | 0 mm | - | 237 W/m² | - |
| 1787619034 | 30.56° C | 39% | 1017.5 hPa | 0 mm | - | 271 W/m² | - |
| 1787618143 | 31.11° C | 37% | 1017.5 hPa | 0 mm | - | 352 W/m² | - |
| 1787617549 | 31.11° C | 37% | 1018.3 hPa | 0 mm | - | 404 W/m² | - |
| 1787616658 | 31.67° C | 37% | 1018.3 hPa | 0 mm | - | 466 W/m² | - |
| 1787616361 | 31.67° C | 37% | 1018.3 hPa | 0 mm | - | 478 W/m² | - |
| 1787616064 | 31.67° C | 38% | 1018.3 hPa | 0 mm | - | 503 W/m² | - |
* Rain latest hour (hover to see other rain measurements)
** Current wind speed in m/s (hover to see current wind gust speed)